sensor_id;sensor_type;location;lat;lon;timestamp;P1;durP1;ratioP1;P2;durP2;ratioP2
4686;SDS011;2357;47.316;-1.348;2024-01-11T00:01:26;30.30;;;19.87;;
4686;SDS011;2357;47.316;-1.348;2024-01-11T00:03:51;27.07;;;17.97;;
4686;SDS011;2357;47.316;-1.348;2024-01-11T00:06:17;27.47;;;19.50;;
4686;SDS011;2357;47.316;-1.348;2024-01-11T00:08:43;31.30;;;20.77;;
4686;SDS011;2357;47.316;-1.348;2024-01-11T00:11:08;31.53;;;18.77;;
4686;SDS011;2357;47.316;-1.348;2024-01-11T00:13:35;27.80;;;19.07;;
4686;SDS011;2357;47.316;-1.348;2024-01-11T00:16:01;27.90;;;18.63;;
4686;SDS011;2357;47.316;-1.348;2024-01-11T00:18:26;27.53;;;18.37;;
4686;SDS011;2357;47.316;-1.348;2024-01-11T00:20:52;25.97;;;18.40;;
4686;SDS011;2357;47.316;-1.348;2024-01-11T00:23:17;31.93;;;19.43;;
4686;SDS011;2357;47.316;-1.348;2024-01-11T00:25:43;37.37;;;22.33;;
4686;SDS011;2357;47.316;-1.348;2024-01-11T00:28:08;27.10;;;18.20;;
4686;SDS011;2357;47.316;-1.348;2024-01-11T00:30:34;30.60;;;20.00;;
4686;SDS011;2357;47.316;-1.348;2024-01-11T00:33:00;28.33;;;18.57;;
4686;SDS011;2357;47.316;-1.348;2024-01-11T00:35:25;28.80;;;19.67;;
4686;SDS011;2357;47.316;-1.348;2024-01-11T00:37:51;29.30;;;18.90;;
4686;SDS011;2357;47.316;-1.348;2024-01-11T00:40:17;26.13;;;18.50;;
4686;SDS011;2357;47.316;-1.348;2024-01-11T00:42:42;25.37;;;18.10;;
4686;SDS011;2357;47.316;-1.348;2024-01-11T00:45:08;27.87;;;18.30;;
4686;SDS011;2357;47.316;-1.348;2024-01-11T00:47:33;31.40;;;19.13;;
4686;SDS011;2357;47.316;-1.348;2024-01-11T00:49:59;32.77;;;19.10;;
4686;SDS011;2357;47.316;-1.348;2024-01-11T00:52:25;31.00;;;20.17;;
4686;SDS011;2357;47.316;-1.348;2024-01-11T00:54:50;25.80;;;17.43;;
4686;SDS011;2357;47.316;-1.348;2024-01-11T00:57:16;25.83;;;17.57;;
4686;SDS011;2357;47.316;-1.348;2024-01-11T00:59:41;29.40;;;18.20;;
4686;SDS011;2357;47.316;-1.348;2024-01-11T01:02:07;27.87;;;18.20;;
4686;SDS011;2357;47.316;-1.348;2024-01-11T01:04:33;27.57;;;17.93;;
4686;SDS011;2357;47.316;-1.348;2024-01-11T01:07:02;25.17;;;16.97;;
4686;SDS011;2357;47.316;-1.348;2024-01-11T01:09:27;35.33;;;20.17;;
4686;SDS011;2357;47.316;-1.348;2024-01-11T01:11:53;28.67;;;18.47;;
4686;SDS011;2357;47.316;-1.348;2024-01-11T01:14:19;24.00;;;17.80;;
4686;SDS011;2357;47.316;-1.348;2024-01-11T01:16:44;28.87;;;18.70;;
4686;SDS011;2357;47.316;-1.348;2024-01-11T01:19:10;27.33;;;18.67;;
4686;SDS011;2357;47.316;-1.348;2024-01-11T01:21:36;30.73;;;18.13;;
4686;SDS011;2357;47.316;-1.348;2024-01-11T01:24:01;28.37;;;18.97;;
4686;SDS011;2357;47.316;-1.348;2024-01-11T01:26:27;26.67;;;17.07;;
4686;SDS011;2357;47.316;-1.348;2024-01-11T01:28:53;25.50;;;16.80;;
4686;SDS011;2357;47.316;-1.348;2024-01-11T01:31:19;28.60;;;18.03;;
4686;SDS011;2357;47.316;-1.348;2024-01-11T01:33:46;28.13;;;18.70;;
4686;SDS011;2357;47.316;-1.348;2024-01-11T01:36:11;28.40;;;17.57;;
4686;SDS011;2357;47.316;-1.348;2024-01-11T01:38:37;29.63;;;19.17;;
4686;SDS011;2357;47.316;-1.348;2024-01-11T01:41:03;28.30;;;17.20;;
4686;SDS011;2357;47.316;-1.348;2024-01-11T01:43:28;27.20;;;18.77;;
4686;SDS011;2357;47.316;-1.348;2024-01-11T01:45:54;24.00;;;17.50;;
4686;SDS011;2357;47.316;-1.348;2024-01-11T01:48:20;26.47;;;19.00;;
4686;SDS011;2357;47.316;-1.348;2024-01-11T01:50:46;28.93;;;18.63;;
4686;SDS011;2357;47.316;-1.348;2024-01-11T01:53:17;24.00;;;16.43;;
4686;SDS011;2357;47.316;-1.348;2024-01-11T01:55:47;28.03;;;18.87;;
4686;SDS011;2357;47.316;-1.348;2024-01-11T01:58:13;25.13;;;17.70;;
4686;SDS011;2357;47.316;-1.348;2024-01-11T02:00:40;27.70;;;18.23;;
4686;SDS011;2357;47.316;-1.348;2024-01-11T02:03:07;28.07;;;18.50;;
4686;SDS011;2357;47.316;-1.348;2024-01-11T02:05:34;29.90;;;17.77;;
4686;SDS011;2357;47.316;-1.348;2024-01-11T02:10:26;25.77;;;18.83;;
4686;SDS011;2357;47.316;-1.348;2024-01-11T02:12:52;26.83;;;17.40;;
4686;SDS011;2357;47.316;-1.348;2024-01-11T02:15:18;24.80;;;18.17;;
4686;SDS011;2357;47.316;-1.348;2024-01-11T02:17:43;30.40;;;18.07;;
4686;SDS011;2357;47.316;-1.348;2024-01-11T02:20:09;28.70;;;18.73;;
4686;SDS011;2357;47.316;-1.348;2024-01-11T02:22:35;25.43;;;16.90;;
4686;SDS011;2357;47.316;-1.348;2024-01-11T02:25:05;31.23;;;20.53;;
4686;SDS011;2357;47.316;-1.348;2024-01-11T02:27:31;41.53;;;25.40;;
4686;SDS011;2357;47.316;-1.348;2024-01-11T02:30:10;26.93;;;18.77;;
4686;SDS011;2357;47.316;-1.348;2024-01-11T02:32:36;40.57;;;22.60;;
4686;SDS011;2357;47.316;-1.348;2024-01-11T02:35:02;41.27;;;22.27;;
4686;SDS011;2357;47.316;-1.348;2024-01-11T02:37:28;44.60;;;23.77;;
4686;SDS011;2357;47.316;-1.348;2024-01-11T02:39:54;29.50;;;18.57;;
4686;SDS011;2357;47.316;-1.348;2024-01-11T02:42:21;27.53;;;17.00;;
4686;SDS011;2357;47.316;-1.348;2024-01-11T02:44:46;36.60;;;20.30;;
4686;SDS011;2357;47.316;-1.348;2024-01-11T02:47:12;31.53;;;19.70;;
4686;SDS011;2357;47.316;-1.348;2024-01-11T02:49:38;59.90;;;31.40;;
4686;SDS011;2357;47.316;-1.348;2024-01-11T02:52:03;29.23;;;17.93;;
4686;SDS011;2357;47.316;-1.348;2024-01-11T02:54:29;29.77;;;17.97;;
4686;SDS011;2357;47.316;-1.348;2024-01-11T02:56:55;32.73;;;19.80;;
4686;SDS011;2357;47.316;-1.348;2024-01-11T02:59:22;30.83;;;18.03;;
4686;SDS011;2357;47.316;-1.348;2024-01-11T03:01:48;27.57;;;18.07;;
4686;SDS011;2357;47.316;-1.348;2024-01-11T03:04:14;28.33;;;19.13;;
4686;SDS011;2357;47.316;-1.348;2024-01-11T03:06:40;29.87;;;19.30;;
4686;SDS011;2357;47.316;-1.348;2024-01-11T03:09:06;25.40;;;17.53;;
4686;SDS011;2357;47.316;-1.348;2024-01-11T03:11:32;31.63;;;19.90;;
4686;SDS011;2357;47.316;-1.348;2024-01-11T03:13:57;38.43;;;23.53;;
4686;SDS011;2357;47.316;-1.348;2024-01-11T03:16:23;35.63;;;18.97;;
4686;SDS011;2357;47.316;-1.348;2024-01-11T03:18:48;30.23;;;18.10;;
4686;SDS011;2357;47.316;-1.348;2024-01-11T03:21:14;41.40;;;22.50;;
4686;SDS011;2357;47.316;-1.348;2024-01-11T03:23:40;24.33;;;17.40;;
4686;SDS011;2357;47.316;-1.348;2024-01-11T03:26:11;27.07;;;16.47;;
4686;SDS011;2357;47.316;-1.348;2024-01-11T03:28:38;26.80;;;17.43;;
4686;SDS011;2357;47.316;-1.348;2024-01-11T03:31:04;36.43;;;19.37;;
4686;SDS011;2357;47.316;-1.348;2024-01-11T03:33:29;26.03;;;17.50;;
4686;SDS011;2357;47.316;-1.348;2024-01-11T03:35:55;49.20;;;27.40;;
4686;SDS011;2357;47.316;-1.348;2024-01-11T03:38:21;30.50;;;20.00;;
4686;SDS011;2357;47.316;-1.348;2024-01-11T03:40:46;32.93;;;17.33;;
4686;SDS011;2357;47.316;-1.348;2024-01-11T03:43:12;25.20;;;15.97;;
4686;SDS011;2357;47.316;-1.348;2024-01-11T03:45:38;24.67;;;16.33;;
4686;SDS011;2357;47.316;-1.348;2024-01-11T03:48:03;25.97;;;16.77;;
4686;SDS011;2357;47.316;-1.348;2024-01-11T03:50:29;26.47;;;17.63;;
4686;SDS011;2357;47.316;-1.348;2024-01-11T03:52:55;23.77;;;15.53;;
4686;SDS011;2357;47.316;-1.348;2024-01-11T03:55:20;30.50;;;18.43;;
4686;SDS011;2357;47.316;-1.348;2024-01-11T03:57:46;26.50;;;17.90;;
4686;SDS011;2357;47.316;-1.348;2024-01-11T04:00:11;23.43;;;16.80;;
4686;SDS011;2357;47.316;-1.348;2024-01-11T04:02:37;33.77;;;20.33;;
4686;SDS011;2357;47.316;-1.348;2024-01-11T04:05:03;23.30;;;15.57;;
4686;SDS011;2357;47.316;-1.348;2024-01-11T04:07:29;28.13;;;18.50;;
4686;SDS011;2357;47.316;-1.348;2024-01-11T04:09:54;28.90;;;16.93;;
4686;SDS011;2357;47.316;-1.348;2024-01-11T04:12:20;27.90;;;17.40;;
4686;SDS011;2357;47.316;-1.348;2024-01-11T04:14:46;27.63;;;18.17;;
4686;SDS011;2357;47.316;-1.348;2024-01-11T04:17:11;36.40;;;22.53;;
4686;SDS011;2357;47.316;-1.348;2024-01-11T04:19:37;24.83;;;17.63;;
4686;SDS011;2357;47.316;-1.348;2024-01-11T04:22:02;26.13;;;17.00;;
4686;SDS011;2357;47.316;-1.348;2024-01-11T04:24:28;23.03;;;16.13;;
4686;SDS011;2357;47.316;-1.348;2024-01-11T04:26:54;22.77;;;16.80;;
4686;SDS011;2357;47.316;-1.348;2024-01-11T04:29:19;25.60;;;17.33;;
4686;SDS011;2357;47.316;-1.348;2024-01-11T04:31:45;23.80;;;15.80;;
4686;SDS011;2357;47.316;-1.348;2024-01-11T04:34:11;23.80;;;17.10;;
4686;SDS011;2357;47.316;-1.348;2024-01-11T04:36:39;27.40;;;17.10;;
4686;SDS011;2357;47.316;-1.348;2024-01-11T04:39:05;30.67;;;18.77;;
4686;SDS011;2357;47.316;-1.348;2024-01-11T04:41:32;46.93;;;22.57;;
4686;SDS011;2357;47.316;-1.348;2024-01-11T04:44:00;34.00;;;19.80;;
4686;SDS011;2357;47.316;-1.348;2024-01-11T04:46:25;24.10;;;16.90;;
4686;SDS011;2357;47.316;-1.348;2024-01-11T04:48:51;32.87;;;17.00;;
4686;SDS011;2357;47.316;-1.348;2024-01-11T04:51:19;24.80;;;16.63;;
4686;SDS011;2357;47.316;-1.348;2024-01-11T04:53:45;23.77;;;15.07;;
4686;SDS011;2357;47.316;-1.348;2024-01-11T04:56:11;26.23;;;15.67;;
4686;SDS011;2357;47.316;-1.348;2024-01-11T04:58:41;28.27;;;17.70;;
4686;SDS011;2357;47.316;-1.348;2024-01-11T05:01:17;27.50;;;17.47;;
4686;SDS011;2357;47.316;-1.348;2024-01-11T05:03:43;22.93;;;16.00;;
4686;SDS011;2357;47.316;-1.348;2024-01-11T05:06:17;22.83;;;15.43;;
4686;SDS011;2357;47.316;-1.348;2024-01-11T05:08:46;25.63;;;16.63;;
4686;SDS011;2357;47.316;-1.348;2024-01-11T05:11:16;23.33;;;16.00;;
4686;SDS011;2357;47.316;-1.348;2024-01-11T05:13:42;23.97;;;15.93;;
4686;SDS011;2357;47.316;-1.348;2024-01-11T05:16:15;23.27;;;15.40;;
4686;SDS011;2357;47.316;-1.348;2024-01-11T05:18:49;30.73;;;15.70;;
4686;SDS011;2357;47.316;-1.348;2024-01-11T05:21:15;26.37;;;17.47;;
4686;SDS011;2357;47.316;-1.348;2024-01-11T05:23:41;24.03;;;15.47;;
4686;SDS011;2357;47.316;-1.348;2024-01-11T05:26:07;22.13;;;15.33;;
4686;SDS011;2357;47.316;-1.348;2024-01-11T05:28:33;29.30;;;17.50;;
4686;SDS011;2357;47.316;-1.348;2024-01-11T05:30:59;24.90;;;16.87;;
4686;SDS011;2357;47.316;-1.348;2024-01-11T05:33:25;24.83;;;15.10;;
4686;SDS011;2357;47.316;-1.348;2024-01-11T05:35:51;23.93;;;15.80;;
4686;SDS011;2357;47.316;-1.348;2024-01-11T05:38:18;24.43;;;16.50;;
4686;SDS011;2357;47.316;-1.348;2024-01-11T05:40:44;27.20;;;17.50;;
4686;SDS011;2357;47.316;-1.348;2024-01-11T05:43:10;22.30;;;16.60;;
4686;SDS011;2357;47.316;-1.348;2024-01-11T05:45:35;23.40;;;15.70;;
4686;SDS011;2357;47.316;-1.348;2024-01-11T05:48:01;24.57;;;16.77;;
4686;SDS011;2357;47.316;-1.348;2024-01-11T05:50:27;27.40;;;17.80;;
4686;SDS011;2357;47.316;-1.348;2024-01-11T05:52:53;33.97;;;20.20;;
4686;SDS011;2357;47.316;-1.348;2024-01-11T05:55:19;62.57;;;32.17;;
4686;SDS011;2357;47.316;-1.348;2024-01-11T05:57:45;24.43;;;17.10;;
4686;SDS011;2357;47.316;-1.348;2024-01-11T06:00:11;33.53;;;20.57;;
4686;SDS011;2357;47.316;-1.348;2024-01-11T06:02:37;32.53;;;18.43;;
4686;SDS011;2357;47.316;-1.348;2024-01-11T06:05:03;20.30;;;15.50;;
4686;SDS011;2357;47.316;-1.348;2024-01-11T06:07:29;20.50;;;15.77;;
4686;SDS011;2357;47.316;-1.348;2024-01-11T06:09:54;26.43;;;15.83;;
4686;SDS011;2357;47.316;-1.348;2024-01-11T06:12:20;25.13;;;15.53;;
4686;SDS011;2357;47.316;-1.348;2024-01-11T06:14:45;25.60;;;16.40;;
4686;SDS011;2357;47.316;-1.348;2024-01-11T06:17:11;29.43;;;17.50;;
4686;SDS011;2357;47.316;-1.348;2024-01-11T06:19:37;30.33;;;17.83;;
4686;SDS011;2357;47.316;-1.348;2024-01-11T06:22:03;26.20;;;17.10;;
4686;SDS011;2357;47.316;-1.348;2024-01-11T06:24:30;25.17;;;16.77;;
4686;SDS011;2357;47.316;-1.348;2024-01-11T06:26:56;23.10;;;15.37;;
4686;SDS011;2357;47.316;-1.348;2024-01-11T06:29:21;27.10;;;18.00;;
4686;SDS011;2357;47.316;-1.348;2024-01-11T06:31:47;25.60;;;16.80;;
4686;SDS011;2357;47.316;-1.348;2024-01-11T06:34:12;27.70;;;17.17;;
4686;SDS011;2357;47.316;-1.348;2024-01-11T06:36:38;29.23;;;17.07;;
4686;SDS011;2357;47.316;-1.348;2024-01-11T06:39:03;25.20;;;18.10;;
4686;SDS011;2357;47.316;-1.348;2024-01-11T06:41:29;26.70;;;17.30;;
4686;SDS011;2357;47.316;-1.348;2024-01-11T06:43:55;29.17;;;17.70;;
4686;SDS011;2357;47.316;-1.348;2024-01-11T06:46:21;26.93;;;16.47;;
4686;SDS011;2357;47.316;-1.348;2024-01-11T06:48:47;22.10;;;15.80;;
4686;SDS011;2357;47.316;-1.348;2024-01-11T06:51:14;25.43;;;16.60;;
4686;SDS011;2357;47.316;-1.348;2024-01-11T06:53:41;27.37;;;17.70;;
4686;SDS011;2357;47.316;-1.348;2024-01-11T06:56:16;23.80;;;14.15;;
4686;SDS011;2357;47.316;-1.348;2024-01-11T06:58:45;23.60;;;16.47;;
4686;SDS011;2357;47.316;-1.348;2024-01-11T07:01:12;22.07;;;15.40;;
4686;SDS011;2357;47.316;-1.348;2024-01-11T07:03:38;27.10;;;16.53;;
4686;SDS011;2357;47.316;-1.348;2024-01-11T07:06:04;31.43;;;16.80;;
4686;SDS011;2357;47.316;-1.348;2024-01-11T07:08:30;27.80;;;16.97;;
4686;SDS011;2357;47.316;-1.348;2024-01-11T07:10:57;24.50;;;16.50;;
4686;SDS011;2357;47.316;-1.348;2024-01-11T07:13:24;29.40;;;17.67;;
4686;SDS011;2357;47.316;-1.348;2024-01-11T07:15:50;27.17;;;16.70;;
4686;SDS011;2357;47.316;-1.348;2024-01-11T07:18:17;26.97;;;17.43;;
4686;SDS011;2357;47.316;-1.348;2024-01-11T07:20:43;27.73;;;17.30;;
4686;SDS011;2357;47.316;-1.348;2024-01-11T07:23:09;26.10;;;17.67;;
4686;SDS011;2357;47.316;-1.348;2024-01-11T07:25:34;28.73;;;17.30;;
4686;SDS011;2357;47.316;-1.348;2024-01-11T07:28:00;25.60;;;17.20;;
4686;SDS011;2357;47.316;-1.348;2024-01-11T07:30:26;28.60;;;17.30;;
4686;SDS011;2357;47.316;-1.348;2024-01-11T07:32:52;28.30;;;19.10;;
4686;SDS011;2357;47.316;-1.348;2024-01-11T07:35:17;28.43;;;17.73;;
4686;SDS011;2357;47.316;-1.348;2024-01-11T07:37:43;27.37;;;17.80;;
4686;SDS011;2357;47.316;-1.348;2024-01-11T07:40:09;25.87;;;17.43;;
4686;SDS011;2357;47.316;-1.348;2024-01-11T07:42:39;27.77;;;17.83;;
4686;SDS011;2357;47.316;-1.348;2024-01-11T07:45:06;23.63;;;17.10;;
4686;SDS011;2357;47.316;-1.348;2024-01-11T07:47:35;26.70;;;17.20;;
4686;SDS011;2357;47.316;-1.348;2024-01-11T07:50:04;48.53;;;23.93;;
4686;SDS011;2357;47.316;-1.348;2024-01-11T07:52:34;23.03;;;16.40;;
4686;SDS011;2357;47.316;-1.348;2024-01-11T07:55:01;38.47;;;25.10;;
4686;SDS011;2357;47.316;-1.348;2024-01-11T07:57:32;55.13;;;30.30;;
4686;SDS011;2357;47.316;-1.348;2024-01-11T07:59:59;33.33;;;20.53;;
4686;SDS011;2357;47.316;-1.348;2024-01-11T08:02:26;33.73;;;19.60;;
4686;SDS011;2357;47.316;-1.348;2024-01-11T08:04:52;28.00;;;18.40;;
4686;SDS011;2357;47.316;-1.348;2024-01-11T08:07:17;24.23;;;17.53;;
4686;SDS011;2357;47.316;-1.348;2024-01-11T08:09:43;23.70;;;17.60;;
4686;SDS011;2357;47.316;-1.348;2024-01-11T08:12:11;35.70;;;20.57;;
4686;SDS011;2357;47.316;-1.348;2024-01-11T08:14:38;27.63;;;18.10;;
4686;SDS011;2357;47.316;-1.348;2024-01-11T08:17:04;26.40;;;18.00;;
4686;SDS011;2357;47.316;-1.348;2024-01-11T08:19:32;29.30;;;19.53;;
4686;SDS011;2357;47.316;-1.348;2024-01-11T08:21:58;28.07;;;18.50;;
4686;SDS011;2357;47.316;-1.348;2024-01-11T08:24:24;25.93;;;17.27;;
4686;SDS011;2357;47.316;-1.348;2024-01-11T08:26:50;29.00;;;18.70;;
4686;SDS011;2357;47.316;-1.348;2024-01-11T08:29:16;29.40;;;18.47;;
4686;SDS011;2357;47.316;-1.348;2024-01-11T08:31:44;30.03;;;19.33;;
4686;SDS011;2357;47.316;-1.348;2024-01-11T08:34:09;29.90;;;18.20;;
4686;SDS011;2357;47.316;-1.348;2024-01-11T08:36:35;30.87;;;20.47;;
4686;SDS011;2357;47.316;-1.348;2024-01-11T08:39:03;29.03;;;18.30;;
4686;SDS011;2357;47.316;-1.348;2024-01-11T08:41:33;33.70;;;20.57;;
4686;SDS011;2357;47.316;-1.348;2024-01-11T08:44:00;28.90;;;18.30;;
4686;SDS011;2357;47.316;-1.348;2024-01-11T08:46:27;27.90;;;18.90;;
4686;SDS011;2357;47.316;-1.348;2024-01-11T08:48:53;25.93;;;17.13;;
4686;SDS011;2357;47.316;-1.348;2024-01-11T08:51:21;28.00;;;18.77;;
4686;SDS011;2357;47.316;-1.348;2024-01-11T08:53:46;44.67;;;28.80;;
4686;SDS011;2357;47.316;-1.348;2024-01-11T08:56:12;98.90;;;51.90;;
4686;SDS011;2357;47.316;-1.348;2024-01-11T08:58:39;29.90;;;19.03;;
4686;SDS011;2357;47.316;-1.348;2024-01-11T09:01:05;41.33;;;24.63;;
4686;SDS011;2357;47.316;-1.348;2024-01-11T09:03:33;38.37;;;21.80;;
4686;SDS011;2357;47.316;-1.348;2024-01-11T09:06:02;31.50;;;19.90;;
4686;SDS011;2357;47.316;-1.348;2024-01-11T09:08:28;36.70;;;23.40;;
4686;SDS011;2357;47.316;-1.348;2024-01-11T09:10:55;36.47;;;23.53;;
4686;SDS011;2357;47.316;-1.348;2024-01-11T09:13:20;81.23;;;39.30;;
4686;SDS011;2357;47.316;-1.348;2024-01-11T09:15:46;31.77;;;20.17;;
4686;SDS011;2357;47.316;-1.348;2024-01-11T09:18:12;66.53;;;33.67;;
4686;SDS011;2357;47.316;-1.348;2024-01-11T09:20:37;26.20;;;18.20;;
4686;SDS011;2357;47.316;-1.348;2024-01-11T09:23:03;29.60;;;20.13;;
4686;SDS011;2357;47.316;-1.348;2024-01-11T09:25:32;27.30;;;17.07;;
4686;SDS011;2357;47.316;-1.348;2024-01-11T09:27:57;38.60;;;22.03;;
4686;SDS011;2357;47.316;-1.348;2024-01-11T09:30:23;33.17;;;20.07;;
4686;SDS011;2357;47.316;-1.348;2024-01-11T09:32:49;24.70;;;17.70;;
4686;SDS011;2357;47.316;-1.348;2024-01-11T09:35:15;43.23;;;24.30;;
4686;SDS011;2357;47.316;-1.348;2024-01-11T09:37:40;40.43;;;23.57;;
4686;SDS011;2357;47.316;-1.348;2024-01-11T09:40:06;28.53;;;18.77;;
4686;SDS011;2357;47.316;-1.348;2024-01-11T09:42:35;80.93;;;44.90;;
4686;SDS011;2357;47.316;-1.348;2024-01-11T09:45:02;39.67;;;23.60;;
4686;SDS011;2357;47.316;-1.348;2024-01-11T09:47:32;29.57;;;19.47;;
4686;SDS011;2357;47.316;-1.348;2024-01-11T09:50:00;30.40;;;17.07;;
4686;SDS011;2357;47.316;-1.348;2024-01-11T09:52:28;32.33;;;19.50;;
4686;SDS011;2357;47.316;-1.348;2024-01-11T09:54:56;32.67;;;20.60;;
4686;SDS011;2357;47.316;-1.348;2024-01-11T09:57:24;26.60;;;17.13;;
4686;SDS011;2357;47.316;-1.348;2024-01-11T09:59:54;32.23;;;20.50;;
4686;SDS011;2357;47.316;-1.348;2024-01-11T10:02:21;51.30;;;30.40;;
4686;SDS011;2357;47.316;-1.348;2024-01-11T10:04:48;52.80;;;30.20;;
4686;SDS011;2357;47.316;-1.348;2024-01-11T10:07:14;32.73;;;20.83;;
4686;SDS011;2357;47.316;-1.348;2024-01-11T10:09:43;49.43;;;30.40;;
4686;SDS011;2357;47.316;-1.348;2024-01-11T10:12:09;31.00;;;19.17;;
4686;SDS011;2357;47.316;-1.348;2024-01-11T10:14:35;29.73;;;21.17;;
4686;SDS011;2357;47.316;-1.348;2024-01-11T10:17:00;29.73;;;18.67;;
4686;SDS011;2357;47.316;-1.348;2024-01-11T10:19:26;28.50;;;18.60;;
4686;SDS011;2357;47.316;-1.348;2024-01-11T10:21:52;25.70;;;18.10;;
4686;SDS011;2357;47.316;-1.348;2024-01-11T10:24:18;27.60;;;18.00;;
4686;SDS011;2357;47.316;-1.348;2024-01-11T10:26:45;44.07;;;26.07;;
4686;SDS011;2357;47.316;-1.348;2024-01-11T10:29:11;26.90;;;18.07;;
4686;SDS011;2357;47.316;-1.348;2024-01-11T10:31:38;27.13;;;18.57;;
4686;SDS011;2357;47.316;-1.348;2024-01-11T10:34:04;33.70;;;20.90;;
4686;SDS011;2357;47.316;-1.348;2024-01-11T10:36:31;33.00;;;21.10;;
4686;SDS011;2357;47.316;-1.348;2024-01-11T10:38:57;31.10;;;19.13;;
4686;SDS011;2357;47.316;-1.348;2024-01-11T10:41:26;35.50;;;21.43;;
4686;SDS011;2357;47.316;-1.348;2024-01-11T10:43:54;26.37;;;19.50;;
4686;SDS011;2357;47.316;-1.348;2024-01-11T10:46:22;29.73;;;19.37;;
4686;SDS011;2357;47.316;-1.348;2024-01-11T10:48:52;32.13;;;18.23;;
4686;SDS011;2357;47.316;-1.348;2024-01-11T10:51:22;29.40;;;17.40;;
4686;SDS011;2357;47.316;-1.348;2024-01-11T10:53:50;27.60;;;17.57;;
4686;SDS011;2357;47.316;-1.348;2024-01-11T10:56:18;27.80;;;17.10;;
4686;SDS011;2357;47.316;-1.348;2024-01-11T10:58:45;27.37;;;18.40;;
4686;SDS011;2357;47.316;-1.348;2024-01-11T11:01:12;26.17;;;18.03;;
4686;SDS011;2357;47.316;-1.348;2024-01-11T11:03:38;27.60;;;18.00;;
4686;SDS011;2357;47.316;-1.348;2024-01-11T11:06:06;28.27;;;16.90;;
4686;SDS011;2357;47.316;-1.348;2024-01-11T11:08:32;33.30;;;18.00;;
4686;SDS011;2357;47.316;-1.348;2024-01-11T11:11:00;23.83;;;16.50;;
4686;SDS011;2357;47.316;-1.348;2024-01-11T11:13:29;23.53;;;16.43;;
4686;SDS011;2357;47.316;-1.348;2024-01-11T11:15:55;21.70;;;15.20;;
4686;SDS011;2357;47.316;-1.348;2024-01-11T11:18:22;29.57;;;16.10;;
4686;SDS011;2357;47.316;-1.348;2024-01-11T11:20:49;24.17;;;16.20;;
4686;SDS011;2357;47.316;-1.348;2024-01-11T11:23:16;20.83;;;14.77;;
4686;SDS011;2357;47.316;-1.348;2024-01-11T11:25:47;23.27;;;14.13;;
4686;SDS011;2357;47.316;-1.348;2024-01-11T11:28:13;23.00;;;14.73;;
4686;SDS011;2357;47.316;-1.348;2024-01-11T11:30:43;22.40;;;15.43;;
4686;SDS011;2357;47.316;-1.348;2024-01-11T11:33:10;26.27;;;15.50;;
4686;SDS011;2357;47.316;-1.348;2024-01-11T11:35:41;27.40;;;16.43;;
4686;SDS011;2357;47.316;-1.348;2024-01-11T11:38:07;23.50;;;13.57;;
4686;SDS011;2357;47.316;-1.348;2024-01-11T11:40:41;21.70;;;13.33;;
4686;SDS011;2357;47.316;-1.348;2024-01-11T11:43:10;28.37;;;14.70;;
4686;SDS011;2357;47.316;-1.348;2024-01-11T11:45:35;32.00;;;17.33;;
4686;SDS011;2357;47.316;-1.348;2024-01-11T11:48:36;22.60;;;12.97;;
4686;SDS011;2357;47.316;-1.348;2024-01-11T11:51:07;24.13;;;14.20;;
4686;SDS011;2357;47.316;-1.348;2024-01-11T11:53:35;33.63;;;20.57;;
4686;SDS011;2357;47.316;-1.348;2024-01-11T11:56:02;51.37;;;24.57;;
4686;SDS011;2357;47.316;-1.348;2024-01-11T11:58:31;54.67;;;27.07;;
4686;SDS011;2357;47.316;-1.348;2024-01-11T12:00:58;92.50;;;47.23;;
4686;SDS011;2357;47.316;-1.348;2024-01-11T12:03:31;95.67;;;46.30;;
4686;SDS011;2357;47.316;-1.348;2024-01-11T12:06:02;26.43;;;16.00;;
4686;SDS011;2357;47.316;-1.348;2024-01-11T12:08:29;20.27;;;13.83;;
4686;SDS011;2357;47.316;-1.348;2024-01-11T12:10:55;27.17;;;17.03;;
4686;SDS011;2357;47.316;-1.348;2024-01-11T12:13:21;26.20;;;15.97;;
4686;SDS011;2357;47.316;-1.348;2024-01-11T12:15:47;23.60;;;14.93;;
4686;SDS011;2357;47.316;-1.348;2024-01-11T12:18:13;20.50;;;12.80;;
4686;SDS011;2357;47.316;-1.348;2024-01-11T12:20:38;24.40;;;13.73;;
4686;SDS011;2357;47.316;-1.348;2024-01-11T12:23:04;15.90;;;11.27;;
4686;SDS011;2357;47.316;-1.348;2024-01-11T12:25:30;27.37;;;14.90;;
4686;SDS011;2357;47.316;-1.348;2024-01-11T12:27:56;21.63;;;14.13;;
4686;SDS011;2357;47.316;-1.348;2024-01-11T12:30:22;19.87;;;12.50;;
4686;SDS011;2357;47.316;-1.348;2024-01-11T12:32:49;16.50;;;11.27;;
4686;SDS011;2357;47.316;-1.348;2024-01-11T12:35:15;27.13;;;14.87;;
4686;SDS011;2357;47.316;-1.348;2024-01-11T12:37:51;17.97;;;11.93;;
4686;SDS011;2357;47.316;-1.348;2024-01-11T12:40:20;15.83;;;11.07;;
4686;SDS011;2357;47.316;-1.348;2024-01-11T12:42:46;16.53;;;10.80;;
4686;SDS011;2357;47.316;-1.348;2024-01-11T12:45:16;21.97;;;12.93;;
4686;SDS011;2357;47.316;-1.348;2024-01-11T12:47:42;20.47;;;11.80;;
4686;SDS011;2357;47.316;-1.348;2024-01-11T12:50:09;26.33;;;13.50;;
4686;SDS011;2357;47.316;-1.348;2024-01-11T12:52:37;21.10;;;12.80;;
4686;SDS011;2357;47.316;-1.348;2024-01-11T12:55:07;20.07;;;12.33;;
4686;SDS011;2357;47.316;-1.348;2024-01-11T12:57:34;17.87;;;12.57;;
4686;SDS011;2357;47.316;-1.348;2024-01-11T13:00:09;18.47;;;11.30;;
4686;SDS011;2357;47.316;-1.348;2024-01-11T13:02:39;21.00;;;12.70;;
4686;SDS011;2357;47.316;-1.348;2024-01-11T13:05:05;27.87;;;11.13;;
4686;SDS011;2357;47.316;-1.348;2024-01-11T13:07:32;20.20;;;12.23;;
4686;SDS011;2357;47.316;-1.348;2024-01-11T13:09:58;21.27;;;12.93;;
4686;SDS011;2357;47.316;-1.348;2024-01-11T13:12:24;21.23;;;12.10;;
4686;SDS011;2357;47.316;-1.348;2024-01-11T13:14:50;16.70;;;10.60;;
4686;SDS011;2357;47.316;-1.348;2024-01-11T13:17:17;15.30;;;10.63;;
4686;SDS011;2357;47.316;-1.348;2024-01-11T13:19:43;16.57;;;11.40;;
4686;SDS011;2357;47.316;-1.348;2024-01-11T13:22:10;17.33;;;11.17;;
4686;SDS011;2357;47.316;-1.348;2024-01-11T13:24:35;17.80;;;10.20;;
4686;SDS011;2357;47.316;-1.348;2024-01-11T13:27:01;20.80;;;11.63;;
4686;SDS011;2357;47.316;-1.348;2024-01-11T13:29:26;17.00;;;10.07;;
4686;SDS011;2357;47.316;-1.348;2024-01-11T13:31:52;14.23;;;9.40;;
4686;SDS011;2357;47.316;-1.348;2024-01-11T13:34:18;12.93;;;9.10;;
4686;SDS011;2357;47.316;-1.348;2024-01-11T13:36:44;16.07;;;9.33;;
4686;SDS011;2357;47.316;-1.348;2024-01-11T13:39:09;13.80;;;9.80;;
4686;SDS011;2357;47.316;-1.348;2024-01-11T13:41:36;11.63;;;8.47;;
4686;SDS011;2357;47.316;-1.348;2024-01-11T13:44:02;12.77;;;9.37;;
4686;SDS011;2357;47.316;-1.348;2024-01-11T13:46:30;20.40;;;9.20;;
4686;SDS011;2357;47.316;-1.348;2024-01-11T13:48:56;16.90;;;9.87;;
4686;SDS011;2357;47.316;-1.348;2024-01-11T13:51:23;15.30;;;9.40;;
4686;SDS011;2357;47.316;-1.348;2024-01-11T13:53:49;14.30;;;8.93;;
4686;SDS011;2357;47.316;-1.348;2024-01-11T13:56:14;11.90;;;7.60;;
4686;SDS011;2357;47.316;-1.348;2024-01-11T13:58:40;14.47;;;7.90;;
4686;SDS011;2357;47.316;-1.348;2024-01-11T14:01:05;14.90;;;8.53;;
4686;SDS011;2357;47.316;-1.348;2024-01-11T14:03:32;14.67;;;8.77;;
4686;SDS011;2357;47.316;-1.348;2024-01-11T14:05:58;16.40;;;8.77;;
4686;SDS011;2357;47.316;-1.348;2024-01-11T14:08:25;12.57;;;8.50;;
4686;SDS011;2357;47.316;-1.348;2024-01-11T14:10:51;13.60;;;8.90;;
4686;SDS011;2357;47.316;-1.348;2024-01-11T14:13:17;9.17;;;7.37;;
4686;SDS011;2357;47.316;-1.348;2024-01-11T14:15:42;10.63;;;6.53;;
4686;SDS011;2357;47.316;-1.348;2024-01-11T14:18:08;10.80;;;7.37;;
4686;SDS011;2357;47.316;-1.348;2024-01-11T14:20:34;16.80;;;7.53;;
4686;SDS011;2357;47.316;-1.348;2024-01-11T14:23:00;13.97;;;7.70;;
4686;SDS011;2357;47.316;-1.348;2024-01-11T14:25:26;12.10;;;8.03;;
4686;SDS011;2357;47.316;-1.348;2024-01-11T14:27:51;11.70;;;8.17;;
4686;SDS011;2357;47.316;-1.348;2024-01-11T14:30:18;15.87;;;9.10;;
4686;SDS011;2357;47.316;-1.348;2024-01-11T14:32:44;12.60;;;8.13;;
4686;SDS011;2357;47.316;-1.348;2024-01-11T14:35:10;16.70;;;8.47;;